sensor_id;sensor_type;location;lat;lon;timestamp;P1;durP1;ratioP1;P2;durP2;ratioP2
80541;SDS011;69870;51.460;8.842;2023-12-20T00:00:19;6.63;;;3.20;;
80541;SDS011;69870;51.460;8.842;2023-12-20T00:02:46;5.95;;;2.83;;
80541;SDS011;69870;51.460;8.842;2023-12-20T00:05:13;4.95;;;2.80;;
80541;SDS011;69870;51.460;8.842;2023-12-20T00:07:39;10.98;;;3.90;;
80541;SDS011;69870;51.460;8.842;2023-12-20T00:10:06;10.63;;;2.88;;
80541;SDS011;69870;51.460;8.842;2023-12-20T00:12:34;6.90;;;2.97;;
80541;SDS011;69870;51.460;8.842;2023-12-20T00:15:01;3.60;;;2.58;;
80541;SDS011;69870;51.460;8.842;2023-12-20T00:17:28;5.38;;;2.72;;
80541;SDS011;69870;51.460;8.842;2023-12-20T00:19:54;4.10;;;2.00;;
80541;SDS011;69870;51.460;8.842;2023-12-20T00:22:21;6.55;;;3.40;;
80541;SDS011;69870;51.460;8.842;2023-12-20T00:24:47;5.18;;;2.60;;
80541;SDS011;69870;51.460;8.842;2023-12-20T00:27:14;5.85;;;2.83;;
80541;SDS011;69870;51.460;8.842;2023-12-20T00:29:42;4.35;;;2.72;;
80541;SDS011;69870;51.460;8.842;2023-12-20T00:32:12;8.45;;;3.15;;
80541;SDS011;69870;51.460;8.842;2023-12-20T00:34:39;4.53;;;2.28;;
80541;SDS011;69870;51.460;8.842;2023-12-20T00:37:05;4.72;;;2.88;;
80541;SDS011;69870;51.460;8.842;2023-12-20T00:39:32;4.60;;;2.65;;
80541;SDS011;69870;51.460;8.842;2023-12-20T00:41:59;5.43;;;3.47;;
80541;SDS011;69870;51.460;8.842;2023-12-20T00:44:25;7.43;;;3.33;;
80541;SDS011;69870;51.460;8.842;2023-12-20T00:46:53;6.00;;;3.42;;
80541;SDS011;69870;51.460;8.842;2023-12-20T00:49:20;7.32;;;3.58;;
80541;SDS011;69870;51.460;8.842;2023-12-20T00:51:46;14.50;;;4.47;;
80541;SDS011;69870;51.460;8.842;2023-12-20T00:54:15;8.73;;;3.83;;
80541;SDS011;69870;51.460;8.842;2023-12-20T00:56:42;17.23;;;8.57;;
80541;SDS011;69870;51.460;8.842;2023-12-20T00:59:08;15.90;;;8.18;;
80541;SDS011;69870;51.460;8.842;2023-12-20T01:01:35;15.15;;;9.00;;
80541;SDS011;69870;51.460;8.842;2023-12-20T01:04:03;15.75;;;9.48;;
80541;SDS011;69870;51.460;8.842;2023-12-20T01:06:30;13.23;;;5.88;;
80541;SDS011;69870;51.460;8.842;2023-12-20T01:08:56;9.63;;;5.00;;
80541;SDS011;69870;51.460;8.842;2023-12-20T01:11:23;8.80;;;4.40;;
80541;SDS011;69870;51.460;8.842;2023-12-20T01:13:49;5.45;;;2.05;;
80541;SDS011;69870;51.460;8.842;2023-12-20T01:16:16;4.50;;;2.35;;
80541;SDS011;69870;51.460;8.842;2023-12-20T01:18:42;7.63;;;3.20;;
80541;SDS011;69870;51.460;8.842;2023-12-20T01:21:10;6.03;;;2.88;;
80541;SDS011;69870;51.460;8.842;2023-12-20T01:23:37;7.45;;;3.55;;
80541;SDS011;69870;51.460;8.842;2023-12-20T01:26:03;10.07;;;4.63;;
80541;SDS011;69870;51.460;8.842;2023-12-20T01:28:30;6.63;;;4.10;;
80541;SDS011;69870;51.460;8.842;2023-12-20T01:30:57;7.85;;;4.15;;
80541;SDS011;69870;51.460;8.842;2023-12-20T01:33:23;19.92;;;6.53;;
80541;SDS011;69870;51.460;8.842;2023-12-20T01:35:50;15.35;;;6.88;;
80541;SDS011;69870;51.460;8.842;2023-12-20T01:38:18;16.83;;;7.85;;
80541;SDS011;69870;51.460;8.842;2023-12-20T01:40:45;13.30;;;7.07;;
80541;SDS011;69870;51.460;8.842;2023-12-20T01:43:11;14.35;;;7.50;;
80541;SDS011;69870;51.460;8.842;2023-12-20T01:45:38;15.32;;;8.48;;
80541;SDS011;69870;51.460;8.842;2023-12-20T01:48:05;13.90;;;7.78;;
80541;SDS011;69870;51.460;8.842;2023-12-20T01:50:33;22.98;;;8.15;;
80541;SDS011;69870;51.460;8.842;2023-12-20T01:53:02;19.42;;;9.70;;
80541;SDS011;69870;51.460;8.842;2023-12-20T01:55:33;20.60;;;9.80;;
80541;SDS011;69870;51.460;8.842;2023-12-20T01:58:02;19.65;;;9.35;;
80541;SDS011;69870;51.460;8.842;2023-12-20T02:00:30;19.33;;;8.52;;
80541;SDS011;69870;51.460;8.842;2023-12-20T02:02:57;18.45;;;9.30;;
80541;SDS011;69870;51.460;8.842;2023-12-20T02:05:28;23.67;;;10.18;;
80541;SDS011;69870;51.460;8.842;2023-12-20T02:07:55;20.05;;;9.15;;
80541;SDS011;69870;51.460;8.842;2023-12-20T02:10:22;22.60;;;8.38;;
80541;SDS011;69870;51.460;8.842;2023-12-20T02:12:50;16.75;;;7.30;;
80541;SDS011;69870;51.460;8.842;2023-12-20T02:15:17;19.30;;;7.78;;
80541;SDS011;69870;51.460;8.842;2023-12-20T02:17:44;23.15;;;7.35;;
80541;SDS011;69870;51.460;8.842;2023-12-20T02:20:12;14.25;;;6.55;;
80541;SDS011;69870;51.460;8.842;2023-12-20T02:22:40;17.63;;;7.22;;
80541;SDS011;69870;51.460;8.842;2023-12-20T02:25:07;24.90;;;6.47;;
80541;SDS011;69870;51.460;8.842;2023-12-20T02:27:34;13.73;;;6.28;;
80541;SDS011;69870;51.460;8.842;2023-12-20T02:30:00;15.52;;;5.68;;
80541;SDS011;69870;51.460;8.842;2023-12-20T02:32:28;14.32;;;6.35;;
80541;SDS011;69870;51.460;8.842;2023-12-20T02:34:55;17.40;;;6.10;;
80541;SDS011;69870;51.460;8.842;2023-12-20T02:37:22;8.75;;;3.90;;
80541;SDS011;69870;51.460;8.842;2023-12-20T02:39:50;17.10;;;6.50;;
80541;SDS011;69870;51.460;8.842;2023-12-20T02:42:17;15.88;;;6.88;;
80541;SDS011;69870;51.460;8.842;2023-12-20T02:44:43;21.63;;;7.90;;
80541;SDS011;69870;51.460;8.842;2023-12-20T02:47:10;21.23;;;7.35;;
80541;SDS011;69870;51.460;8.842;2023-12-20T02:49:36;25.10;;;9.38;;
80541;SDS011;69870;51.460;8.842;2023-12-20T02:52:03;20.92;;;7.35;;
80541;SDS011;69870;51.460;8.842;2023-12-20T02:54:30;25.02;;;7.82;;
80541;SDS011;69870;51.460;8.842;2023-12-20T02:56:58;19.55;;;7.20;;
80541;SDS011;69870;51.460;8.842;2023-12-20T02:59:24;25.92;;;8.70;;
80541;SDS011;69870;51.460;8.842;2023-12-20T03:01:51;18.20;;;6.80;;
80541;SDS011;69870;51.460;8.842;2023-12-20T03:04:17;22.73;;;7.88;;
80541;SDS011;69870;51.460;8.842;2023-12-20T03:06:44;19.45;;;8.20;;
80541;SDS011;69870;51.460;8.842;2023-12-20T03:09:11;19.65;;;8.18;;
80541;SDS011;69870;51.460;8.842;2023-12-20T03:11:38;26.13;;;8.02;;
80541;SDS011;69870;51.460;8.842;2023-12-20T03:14:07;24.13;;;7.70;;
80541;SDS011;69870;51.460;8.842;2023-12-20T03:16:33;20.10;;;7.45;;
80541;SDS011;69870;51.460;8.842;2023-12-20T03:19:00;11.10;;;6.03;;
80541;SDS011;69870;51.460;8.842;2023-12-20T03:21:27;28.33;;;7.43;;
80541;SDS011;69870;51.460;8.842;2023-12-20T03:23:53;26.77;;;7.28;;
80541;SDS011;69870;51.460;8.842;2023-12-20T03:26:20;22.20;;;7.22;;
80541;SDS011;69870;51.460;8.842;2023-12-20T03:28:47;21.63;;;7.50;;
80541;SDS011;69870;51.460;8.842;2023-12-20T03:31:15;19.30;;;7.10;;
80541;SDS011;69870;51.460;8.842;2023-12-20T03:33:42;18.58;;;7.13;;
80541;SDS011;69870;51.460;8.842;2023-12-20T03:36:08;22.48;;;7.90;;
80541;SDS011;69870;51.460;8.842;2023-12-20T03:38:35;19.27;;;6.43;;
80541;SDS011;69870;51.460;8.842;2023-12-20T03:41:01;18.65;;;6.88;;
80541;SDS011;69870;51.460;8.842;2023-12-20T03:43:28;18.20;;;7.00;;
80541;SDS011;69870;51.460;8.842;2023-12-20T03:45:54;20.05;;;7.05;;
80541;SDS011;69870;51.460;8.842;2023-12-20T03:48:22;20.85;;;6.47;;
80541;SDS011;69870;51.460;8.842;2023-12-20T03:50:49;25.15;;;7.25;;
80541;SDS011;69870;51.460;8.842;2023-12-20T03:53:15;19.75;;;6.18;;
80541;SDS011;69870;51.460;8.842;2023-12-20T03:55:42;18.17;;;5.63;;
80541;SDS011;69870;51.460;8.842;2023-12-20T03:58:09;16.67;;;5.60;;
80541;SDS011;69870;51.460;8.842;2023-12-20T04:00:35;20.52;;;6.25;;
80541;SDS011;69870;51.460;8.842;2023-12-20T04:03:02;12.65;;;5.82;;
80541;SDS011;69870;51.460;8.842;2023-12-20T04:05:30;24.10;;;5.20;;
80541;SDS011;69870;51.460;8.842;2023-12-20T04:07:56;12.85;;;5.30;;
80541;SDS011;69870;51.460;8.842;2023-12-20T04:10:23;18.50;;;5.53;;
80541;SDS011;69870;51.460;8.842;2023-12-20T04:12:49;19.15;;;4.60;;
80541;SDS011;69870;51.460;8.842;2023-12-20T04:15:16;19.73;;;5.07;;
80541;SDS011;69870;51.460;8.842;2023-12-20T04:17:42;20.70;;;5.72;;
80541;SDS011;69870;51.460;8.842;2023-12-20T04:20:09;23.23;;;4.50;;
80541;SDS011;69870;51.460;8.842;2023-12-20T04:22:37;15.80;;;4.00;;
80541;SDS011;69870;51.460;8.842;2023-12-20T04:25:04;22.20;;;4.63;;
80541;SDS011;69870;51.460;8.842;2023-12-20T04:27:31;17.50;;;3.25;;
80541;SDS011;69870;51.460;8.842;2023-12-20T04:29:57;11.40;;;3.85;;
80541;SDS011;69870;51.460;8.842;2023-12-20T04:32:24;16.67;;;3.50;;
80541;SDS011;69870;51.460;8.842;2023-12-20T04:34:50;23.10;;;3.78;;
80541;SDS011;69870;51.460;8.842;2023-12-20T04:37:17;21.98;;;3.30;;
80541;SDS011;69870;51.460;8.842;2023-12-20T04:39:45;20.48;;;3.15;;
80541;SDS011;69870;51.460;8.842;2023-12-20T04:42:11;14.30;;;3.15;;
80541;SDS011;69870;51.460;8.842;2023-12-20T04:44:38;22.65;;;3.83;;
80541;SDS011;69870;51.460;8.842;2023-12-20T04:47:04;14.95;;;3.50;;
80541;SDS011;69870;51.460;8.842;2023-12-20T04:49:31;12.85;;;3.47;;
80541;SDS011;69870;51.460;8.842;2023-12-20T04:51:57;11.38;;;3.63;;
80541;SDS011;69870;51.460;8.842;2023-12-20T04:54:24;16.25;;;3.58;;
80541;SDS011;69870;51.460;8.842;2023-12-20T04:56:52;18.63;;;4.60;;
80541;SDS011;69870;51.460;8.842;2023-12-20T04:59:18;11.80;;;2.88;;
80541;SDS011;69870;51.460;8.842;2023-12-20T05:01:45;14.63;;;4.03;;
80541;SDS011;69870;51.460;8.842;2023-12-20T05:04:11;19.58;;;3.75;;
80541;SDS011;69870;51.460;8.842;2023-12-20T05:06:38;11.80;;;4.20;;
80541;SDS011;69870;51.460;8.842;2023-12-20T05:09:04;20.02;;;4.55;;
80541;SDS011;69870;51.460;8.842;2023-12-20T05:11:31;22.13;;;4.07;;
80541;SDS011;69870;51.460;8.842;2023-12-20T05:13:59;18.83;;;4.47;;
80541;SDS011;69870;51.460;8.842;2023-12-20T05:16:25;12.20;;;3.90;;
80541;SDS011;69870;51.460;8.842;2023-12-20T05:18:52;28.25;;;5.72;;
80541;SDS011;69870;51.460;8.842;2023-12-20T05:21:19;16.50;;;3.97;;
80541;SDS011;69870;51.460;8.842;2023-12-20T05:23:45;21.55;;;4.85;;
80541;SDS011;69870;51.460;8.842;2023-12-20T05:26:12;17.38;;;3.38;;
80541;SDS011;69870;51.460;8.842;2023-12-20T05:28:38;19.02;;;3.80;;
80541;SDS011;69870;51.460;8.842;2023-12-20T05:31:06;18.38;;;3.65;;
80541;SDS011;69870;51.460;8.842;2023-12-20T05:33:33;18.13;;;5.30;;
80541;SDS011;69870;51.460;8.842;2023-12-20T05:35:59;20.38;;;3.47;;
80541;SDS011;69870;51.460;8.842;2023-12-20T05:38:26;23.92;;;4.47;;
80541;SDS011;69870;51.460;8.842;2023-12-20T05:40:53;26.85;;;4.45;;
80541;SDS011;69870;51.460;8.842;2023-12-20T05:43:19;22.00;;;3.78;;
80541;SDS011;69870;51.460;8.842;2023-12-20T05:45:46;18.63;;;3.38;;
80541;SDS011;69870;51.460;8.842;2023-12-20T05:48:14;23.67;;;3.67;;
80541;SDS011;69870;51.460;8.842;2023-12-20T05:50:40;24.23;;;4.40;;
80541;SDS011;69870;51.460;8.842;2023-12-20T05:53:07;27.35;;;4.05;;
80541;SDS011;69870;51.460;8.842;2023-12-20T05:55:34;18.25;;;4.43;;
80541;SDS011;69870;51.460;8.842;2023-12-20T05:58:00;24.30;;;4.38;;
80541;SDS011;69870;51.460;8.842;2023-12-20T06:00:27;19.00;;;3.53;;
80541;SDS011;69870;51.460;8.842;2023-12-20T06:02:53;15.88;;;4.07;;
80541;SDS011;69870;51.460;8.842;2023-12-20T06:05:21;29.63;;;4.18;;
80541;SDS011;69870;51.460;8.842;2023-12-20T06:07:48;18.90;;;3.88;;
80541;SDS011;69870;51.460;8.842;2023-12-20T06:10:15;24.17;;;3.72;;
80541;SDS011;69870;51.460;8.842;2023-12-20T06:12:42;21.08;;;5.78;;
80541;SDS011;69870;51.460;8.842;2023-12-20T06:15:09;16.13;;;4.25;;
80541;SDS011;69870;51.460;8.842;2023-12-20T06:17:35;16.63;;;4.32;;
80541;SDS011;69870;51.460;8.842;2023-12-20T06:20:03;22.15;;;4.72;;
80541;SDS011;69870;51.460;8.842;2023-12-20T06:22:34;31.65;;;6.32;;
80541;SDS011;69870;51.460;8.842;2023-12-20T06:25:01;22.17;;;4.68;;
80541;SDS011;69870;51.460;8.842;2023-12-20T06:27:28;28.20;;;5.90;;
80541;SDS011;69870;51.460;8.842;2023-12-20T06:29:54;27.67;;;5.00;;
80541;SDS011;69870;51.460;8.842;2023-12-20T06:32:21;27.42;;;5.00;;
80541;SDS011;69870;51.460;8.842;2023-12-20T06:34:48;30.35;;;6.03;;
80541;SDS011;69870;51.460;8.842;2023-12-20T06:37:15;24.50;;;5.47;;
80541;SDS011;69870;51.460;8.842;2023-12-20T06:39:43;25.83;;;5.63;;
80541;SDS011;69870;51.460;8.842;2023-12-20T06:42:09;29.35;;;5.88;;
80541;SDS011;69870;51.460;8.842;2023-12-20T06:44:36;22.13;;;6.10;;
80541;SDS011;69870;51.460;8.842;2023-12-20T06:47:04;31.67;;;5.60;;
80541;SDS011;69870;51.460;8.842;2023-12-20T06:49:30;27.13;;;6.63;;
80541;SDS011;69870;51.460;8.842;2023-12-20T06:51:57;24.13;;;5.72;;
80541;SDS011;69870;51.460;8.842;2023-12-20T06:54:23;31.00;;;6.80;;
80541;SDS011;69870;51.460;8.842;2023-12-20T06:56:51;34.78;;;7.93;;
80541;SDS011;69870;51.460;8.842;2023-12-20T06:59:18;31.48;;;6.28;;
80541;SDS011;69870;51.460;8.842;2023-12-20T07:01:47;22.80;;;5.57;;
80541;SDS011;69870;51.460;8.842;2023-12-20T07:04:14;26.55;;;5.78;;
80541;SDS011;69870;51.460;8.842;2023-12-20T07:06:40;33.58;;;7.25;;
80541;SDS011;69870;51.460;8.842;2023-12-20T07:09:07;28.60;;;6.22;;
80541;SDS011;69870;51.460;8.842;2023-12-20T07:11:33;28.27;;;8.30;;
80541;SDS011;69870;51.460;8.842;2023-12-20T07:14:01;23.52;;;6.15;;
80541;SDS011;69870;51.460;8.842;2023-12-20T07:16:28;29.88;;;5.63;;
80541;SDS011;69870;51.460;8.842;2023-12-20T07:18:54;27.30;;;5.10;;
80541;SDS011;69870;51.460;8.842;2023-12-20T07:21:22;26.15;;;6.05;;
80541;SDS011;69870;51.460;8.842;2023-12-20T07:23:48;32.85;;;7.70;;
80541;SDS011;69870;51.460;8.842;2023-12-20T07:26:15;31.98;;;5.72;;
80541;SDS011;69870;51.460;8.842;2023-12-20T07:28:41;25.45;;;5.50;;
80541;SDS011;69870;51.460;8.842;2023-12-20T07:31:09;27.10;;;6.60;;
80541;SDS011;69870;51.460;8.842;2023-12-20T07:33:36;25.58;;;5.70;;
80541;SDS011;69870;51.460;8.842;2023-12-20T07:36:03;32.97;;;5.47;;
80541;SDS011;69870;51.460;8.842;2023-12-20T07:38:29;28.52;;;5.70;;
80541;SDS011;69870;51.460;8.842;2023-12-20T07:40:56;20.80;;;6.05;;
80541;SDS011;69870;51.460;8.842;2023-12-20T07:43:22;36.85;;;7.00;;
80541;SDS011;69870;51.460;8.842;2023-12-20T07:45:49;27.52;;;5.93;;
80541;SDS011;69870;51.460;8.842;2023-12-20T07:48:17;35.67;;;6.53;;
80541;SDS011;69870;51.460;8.842;2023-12-20T07:50:44;25.33;;;5.55;;
80541;SDS011;69870;51.460;8.842;2023-12-20T07:53:10;34.72;;;5.75;;
80541;SDS011;69870;51.460;8.842;2023-12-20T07:55:37;36.60;;;5.85;;
80541;SDS011;69870;51.460;8.842;2023-12-20T07:58:03;26.65;;;5.57;;
80541;SDS011;69870;51.460;8.842;2023-12-20T08:00:30;18.52;;;4.55;;
80541;SDS011;69870;51.460;8.842;2023-12-20T08:02:57;22.48;;;5.10;;
80541;SDS011;69870;51.460;8.842;2023-12-20T08:05:25;21.45;;;6.15;;
80541;SDS011;69870;51.460;8.842;2023-12-20T08:07:51;24.75;;;6.15;;
80541;SDS011;69870;51.460;8.842;2023-12-20T08:10:18;35.90;;;5.35;;
80541;SDS011;69870;51.460;8.842;2023-12-20T08:12:44;32.08;;;6.07;;
80541;SDS011;69870;51.460;8.842;2023-12-20T08:15:11;30.70;;;5.60;;
80541;SDS011;69870;51.460;8.842;2023-12-20T08:17:37;28.63;;;5.68;;
80541;SDS011;69870;51.460;8.842;2023-12-20T08:20:04;22.25;;;5.65;;
80541;SDS011;69870;51.460;8.842;2023-12-20T08:22:33;19.90;;;5.20;;
80541;SDS011;69870;51.460;8.842;2023-12-20T08:25:00;31.42;;;6.88;;
80541;SDS011;69870;51.460;8.842;2023-12-20T08:27:26;16.15;;;5.30;;
80541;SDS011;69870;51.460;8.842;2023-12-20T08:29:53;28.52;;;5.88;;
80541;SDS011;69870;51.460;8.842;2023-12-20T08:32:19;24.88;;;5.65;;
80541;SDS011;69870;51.460;8.842;2023-12-20T08:34:46;23.05;;;5.18;;
80541;SDS011;69870;51.460;8.842;2023-12-20T08:37:12;26.95;;;5.95;;
80541;SDS011;69870;51.460;8.842;2023-12-20T08:39:40;26.45;;;4.68;;
80541;SDS011;69870;51.460;8.842;2023-12-20T08:42:08;31.65;;;6.13;;
80541;SDS011;69870;51.460;8.842;2023-12-20T08:44:35;30.33;;;6.60;;
80541;SDS011;69870;51.460;8.842;2023-12-20T08:47:01;41.10;;;5.57;;
80541;SDS011;69870;51.460;8.842;2023-12-20T08:49:28;23.90;;;4.97;;
80541;SDS011;69870;51.460;8.842;2023-12-20T08:51:55;23.58;;;5.47;;
80541;SDS011;69870;51.460;8.842;2023-12-20T08:54:21;30.38;;;4.95;;
80541;SDS011;69870;51.460;8.842;2023-12-20T08:56:49;33.40;;;6.03;;
80541;SDS011;69870;51.460;8.842;2023-12-20T08:59:16;22.50;;;5.20;;
80541;SDS011;69870;51.460;8.842;2023-12-20T09:01:43;23.70;;;5.47;;
80541;SDS011;69870;51.460;8.842;2023-12-20T09:04:10;29.00;;;5.70;;
80541;SDS011;69870;51.460;8.842;2023-12-20T09:06:37;24.00;;;5.68;;
80541;SDS011;69870;51.460;8.842;2023-12-20T09:09:03;22.95;;;5.10;;
80541;SDS011;69870;51.460;8.842;2023-12-20T09:11:30;44.20;;;6.50;;
80541;SDS011;69870;51.460;8.842;2023-12-20T09:13:58;25.88;;;4.93;;
80541;SDS011;69870;51.460;8.842;2023-12-20T09:16:25;17.67;;;5.07;;
80541;SDS011;69870;51.460;8.842;2023-12-20T09:18:51;25.35;;;5.30;;
80541;SDS011;69870;51.460;8.842;2023-12-20T09:21:18;29.65;;;6.38;;
80541;SDS011;69870;51.460;8.842;2023-12-20T09:23:44;28.90;;;6.05;;
80541;SDS011;69870;51.460;8.842;2023-12-20T09:26:11;22.20;;;5.50;;
80541;SDS011;69870;51.460;8.842;2023-12-20T09:28:38;20.13;;;5.55;;
80541;SDS011;69870;51.460;8.842;2023-12-20T09:31:06;29.40;;;6.00;;
80541;SDS011;69870;51.460;8.842;2023-12-20T09:33:33;23.10;;;5.22;;
80541;SDS011;69870;51.460;8.842;2023-12-20T09:36:00;24.92;;;4.93;;
80541;SDS011;69870;51.460;8.842;2023-12-20T09:38:27;18.30;;;5.05;;
80541;SDS011;69870;51.460;8.842;2023-12-20T09:40:53;17.98;;;6.22;;
80541;SDS011;69870;51.460;8.842;2023-12-20T09:43:21;20.90;;;5.38;;
80541;SDS011;69870;51.460;8.842;2023-12-20T09:45:50;23.67;;;4.88;;
80541;SDS011;69870;51.460;8.842;2023-12-20T09:48:21;23.42;;;4.82;;
80541;SDS011;69870;51.460;8.842;2023-12-20T09:50:47;19.70;;;4.75;;
80541;SDS011;69870;51.460;8.842;2023-12-20T09:53:14;32.45;;;5.30;;
80541;SDS011;69870;51.460;8.842;2023-12-20T09:55:42;24.10;;;5.00;;
80541;SDS011;69870;51.460;8.842;2023-12-20T09:58:09;27.63;;;5.55;;
80541;SDS011;69870;51.460;8.842;2023-12-20T10:00:36;35.78;;;5.57;;
80541;SDS011;69870;51.460;8.842;2023-12-20T10:03:02;21.88;;;4.95;;
80541;SDS011;69870;51.460;8.842;2023-12-20T10:05:34;24.17;;;6.00;;
80541;SDS011;69870;51.460;8.842;2023-12-20T10:08:01;22.77;;;6.18;;
80541;SDS011;69870;51.460;8.842;2023-12-20T10:10:28;20.27;;;5.72;;
80541;SDS011;69870;51.460;8.842;2023-12-20T10:13:01;24.42;;;4.30;;
80541;SDS011;69870;51.460;8.842;2023-12-20T10:15:29;28.63;;;5.53;;
80541;SDS011;69870;51.460;8.842;2023-12-20T10:18:03;20.67;;;4.97;;
80541;SDS011;69870;51.460;8.842;2023-12-20T10:20:30;22.63;;;5.25;;
80541;SDS011;69870;51.460;8.842;2023-12-20T10:22:59;21.48;;;6.00;;
80541;SDS011;69870;51.460;8.842;2023-12-20T10:25:27;24.42;;;6.22;;
80541;SDS011;69870;51.460;8.842;2023-12-20T10:28:08;22.25;;;5.80;;
80541;SDS011;69870;51.460;8.842;2023-12-20T10:30:36;23.25;;;5.38;;
80541;SDS011;69870;51.460;8.842;2023-12-20T10:33:02;16.17;;;4.72;;
80541;SDS011;69870;51.460;8.842;2023-12-20T10:35:29;20.25;;;4.75;;
80541;SDS011;69870;51.460;8.842;2023-12-20T10:37:56;18.20;;;5.07;;
80541;SDS011;69870;51.460;8.842;2023-12-20T10:40:24;16.73;;;4.32;;
80541;SDS011;69870;51.460;8.842;2023-12-20T10:42:54;27.67;;;5.13;;
80541;SDS011;69870;51.460;8.842;2023-12-20T10:45:22;18.10;;;4.75;;
80541;SDS011;69870;51.460;8.842;2023-12-20T10:47:49;25.58;;;4.40;;
80541;SDS011;69870;51.460;8.842;2023-12-20T10:50:16;27.23;;;4.55;;
80541;SDS011;69870;51.460;8.842;2023-12-20T10:52:45;18.38;;;5.35;;
80541;SDS011;69870;51.460;8.842;2023-12-20T10:55:13;22.40;;;5.47;;
80541;SDS011;69870;51.460;8.842;2023-12-20T10:57:41;21.35;;;5.25;;
80541;SDS011;69870;51.460;8.842;2023-12-20T11:00:08;22.48;;;5.30;;
80541;SDS011;69870;51.460;8.842;2023-12-20T11:02:40;16.70;;;4.57;;
80541;SDS011;69870;51.460;8.842;2023-12-20T11:05:09;23.48;;;5.57;;
80541;SDS011;69870;51.460;8.842;2023-12-20T11:07:45;17.30;;;5.60;;
80541;SDS011;69870;51.460;8.842;2023-12-20T11:10:21;24.77;;;5.80;;
80541;SDS011;69870;51.460;8.842;2023-12-20T11:12:53;22.83;;;5.05;;
80541;SDS011;69870;51.460;8.842;2023-12-20T11:15:23;23.15;;;5.25;;
80541;SDS011;69870;51.460;8.842;2023-12-20T11:17:54;17.92;;;4.63;;
80541;SDS011;69870;51.460;8.842;2023-12-20T11:20:22;17.58;;;5.25;;
80541;SDS011;69870;51.460;8.842;2023-12-20T11:22:52;28.05;;;5.22;;
80541;SDS011;69870;51.460;8.842;2023-12-20T11:25:20;21.15;;;5.25;;
80541;SDS011;69870;51.460;8.842;2023-12-20T11:28:06;13.75;;;4.68;;
80541;SDS011;69870;51.460;8.842;2023-12-20T11:30:40;32.33;;;5.60;;
80541;SDS011;69870;51.460;8.842;2023-12-20T11:33:07;23.52;;;5.57;;
80541;SDS011;69870;51.460;8.842;2023-12-20T11:35:34;19.83;;;3.92;;
80541;SDS011;69870;51.460;8.842;2023-12-20T11:38:02;24.75;;;4.93;;
80541;SDS011;69870;51.460;8.842;2023-12-20T11:40:29;20.52;;;4.75;;
80541;SDS011;69870;51.460;8.842;2023-12-20T11:43:02;20.35;;;4.47;;
80541;SDS011;69870;51.460;8.842;2023-12-20T11:45:29;18.88;;;4.65;;
80541;SDS011;69870;51.460;8.842;2023-12-20T11:47:56;18.80;;;4.13;;
80541;SDS011;69870;51.460;8.842;2023-12-20T11:50:23;18.08;;;4.07;;
80541;SDS011;69870;51.460;8.842;2023-12-20T11:52:51;19.33;;;3.53;;
80541;SDS011;69870;51.460;8.842;2023-12-20T11:55:18;19.67;;;4.50;;
80541;SDS011;69870;51.460;8.842;2023-12-20T11:57:45;21.00;;;4.75;;
80541;SDS011;69870;51.460;8.842;2023-12-20T12:00:13;12.05;;;3.45;;
80541;SDS011;69870;51.460;8.842;2023-12-20T12:02:41;14.27;;;4.43;;
80541;SDS011;69870;51.460;8.842;2023-12-20T12:05:08;21.90;;;4.05;;
80541;SDS011;69870;51.460;8.842;2023-12-20T12:07:34;21.60;;;4.22;;
80541;SDS011;69870;51.460;8.842;2023-12-20T12:10:01;20.88;;;4.30;;
80541;SDS011;69870;51.460;8.842;2023-12-20T12:12:29;21.70;;;5.13;;
80541;SDS011;69870;51.460;8.842;2023-12-20T12:14:57;23.90;;;6.18;;
80541;SDS011;69870;51.460;8.842;2023-12-20T12:17:25;22.48;;;5.25;;
80541;SDS011;69870;51.460;8.842;2023-12-20T12:19:52;35.05;;;5.28;;
80541;SDS011;69870;51.460;8.842;2023-12-20T12:22:29;25.42;;;5.00;;
80541;SDS011;69870;51.460;8.842;2023-12-20T12:24:58;22.38;;;6.28;;
80541;SDS011;69870;51.460;8.842;2023-12-20T12:27:25;21.77;;;6.70;;
80541;SDS011;69870;51.460;8.842;2023-12-20T12:30:02;20.27;;;6.47;;
80541;SDS011;69870;51.460;8.842;2023-12-20T12:32:33;23.45;;;5.80;;
80541;SDS011;69870;51.460;8.842;2023-12-20T12:35:00;27.92;;;6.18;;
80541;SDS011;69870;51.460;8.842;2023-12-20T12:37:28;23.80;;;6.20;;
80541;SDS011;69870;51.460;8.842;2023-12-20T12:39:55;16.25;;;6.18;;
80541;SDS011;69870;51.460;8.842;2023-12-20T12:42:23;18.50;;;6.50;;
80541;SDS011;69870;51.460;8.842;2023-12-20T12:44:53;26.38;;;6.13;;
80541;SDS011;69870;51.460;8.842;2023-12-20T12:47:20;21.60;;;6.35;;
80541;SDS011;69870;51.460;8.842;2023-12-20T12:49:48;24.40;;;6.57;;
80541;SDS011;69870;51.460;8.842;2023-12-20T12:52:17;21.50;;;6.20;;
80541;SDS011;69870;51.460;8.842;2023-12-20T12:54:43;21.55;;;6.85;;
80541;SDS011;69870;51.460;8.842;2023-12-20T12:57:12;21.98;;;6.60;;
80541;SDS011;69870;51.460;8.842;2023-12-20T12:59:39;24.40;;;6.95;;
80541;SDS011;69870;51.460;8.842;2023-12-20T13:02:06;16.30;;;5.95;;
80541;SDS011;69870;51.460;8.842;2023-12-20T13:04:33;27.90;;;5.88;;
80541;SDS011;69870;51.460;8.842;2023-12-20T13:07:01;30.30;;;6.57;;
80541;SDS011;69870;51.460;8.842;2023-12-20T13:09:27;16.60;;;5.28;;
80541;SDS011;69870;51.460;8.842;2023-12-20T13:11:54;17.08;;;5.32;;
80541;SDS011;69870;51.460;8.842;2023-12-20T13:14:20;19.90;;;5.60;;
80541;SDS011;69870;51.460;8.842;2023-12-20T13:16:47;21.55;;;5.53;;
80541;SDS011;69870;51.460;8.842;2023-12-20T13:19:14;24.88;;;6.15;;
80541;SDS011;69870;51.460;8.842;2023-12-20T13:21:41;26.85;;;5.78;;
80541;SDS011;69870;51.460;8.842;2023-12-20T13:24:09;22.38;;;5.13;;
80541;SDS011;69870;51.460;8.842;2023-12-20T13:26:36;19.23;;;4.40;;
80541;SDS011;69870;51.460;8.842;2023-12-20T13:29:03;15.43;;;4.82;;
80541;SDS011;69870;51.460;8.842;2023-12-20T13:31:30;10.98;;;4.13;;
80541;SDS011;69870;51.460;8.842;2023-12-20T13:33:56;13.80;;;3.95;;
80541;SDS011;69870;51.460;8.842;2023-12-20T13:36:23;16.35;;;5.28;;
80541;SDS011;69870;51.460;8.842;2023-12-20T13:38:49;13.20;;;4.78;;
80541;SDS011;69870;51.460;8.842;2023-12-20T13:41:17;21.77;;;4.47;;
80541;SDS011;69870;51.460;8.842;2023-12-20T13:43:44;18.05;;;4.68;;
80541;SDS011;69870;51.460;8.842;2023-12-20T13:46:10;13.20;;;4.35;;
80541;SDS011;69870;51.460;8.842;2023-12-20T13:48:39;8.90;;;3.20;;
80541;SDS011;69870;51.460;8.842;2023-12-20T13:51:06;14.68;;;4.07;;
80541;SDS011;69870;51.460;8.842;2023-12-20T13:53:33;14.57;;;4.43;;
80541;SDS011;69870;51.460;8.842;2023-12-20T13:55:59;8.60;;;3.83;;
80541;SDS011;69870;51.460;8.842;2023-12-20T13:58:27;16.52;;;4.45;;
80541;SDS011;69870;51.460;8.842;2023-12-20T14:00:54;6.20;;;4.07;;
80541;SDS011;69870;51.460;8.842;2023-12-20T14:03:20;17.00;;;5.00;;
80541;SDS011;69870;51.460;8.842;2023-12-20T14:05:47;19.88;;;4.97;;
80541;SDS011;69870;51.460;8.842;2023-12-20T14:08:14;14.27;;;5.25;;
80541;SDS011;69870;51.460;8.842;2023-12-20T14:10:40;9.57;;;4.18;;
80541;SDS011;69870;51.460;8.842;2023-12-20T14:13:07;19.40;;;4.75;;
80541;SDS011;69870;51.460;8.842;2023-12-20T14:15:35;12.15;;;4.70;;
80541;SDS011;69870;51.460;8.842;2023-12-20T14:18:02;14.60;;;4.80;;
80541;SDS011;69870;51.460;8.842;2023-12-20T14:20:31;19.13;;;5.25;;
80541;SDS011;69870;51.460;8.842;2023-12-20T14:22:59;25.77;;;5.25;;
80541;SDS011;69870;51.460;8.842;2023-12-20T14:25:26;16.17;;;4.97;;
80541;SDS011;69870;51.460;8.842;2023-12-20T14:27:52;18.13;;;5.03;;
80541;SDS011;69870;51.460;8.842;2023-12-20T14:30:19;14.85;;;4.18;;
80541;SDS011;69870;51.460;8.842;2023-12-20T14:32:47;15.25;;;5.22;;
80541;SDS011;69870;51.460;8.842;2023-12-20T14:35:14;13.05;;;4.65;;